createdAt,value
2016-11-17T00:00:10.001Z,0
2016-11-17T00:01:10.560Z,0
2016-11-17T00:02:09.587Z,0
2016-11-17T00:03:09.752Z,0
2016-11-17T00:04:09.714Z,0
2016-11-17T00:05:09.763Z,0
2016-11-17T00:06:09.822Z,0
2016-11-17T00:07:09.878Z,0
2016-11-17T00:08:10.020Z,0
2016-11-17T00:09:09.968Z,0
2016-11-17T00:10:09.997Z,0
2016-11-17T00:11:10.051Z,0
2016-11-17T00:12:10.678Z,0
2016-11-17T00:13:10.747Z,0
2016-11-17T00:14:10.728Z,0
2016-11-17T00:15:10.206Z,0
2016-11-17T00:16:10.284Z,0
2016-11-17T00:17:10.381Z,0
2016-11-17T00:18:10.405Z,0
2016-11-17T00:19:10.466Z,0
2016-11-17T00:20:10.565Z,0
2016-11-17T00:21:11.099Z,0
2016-11-17T00:22:10.633Z,0
2016-11-17T00:23:10.637Z,0
2016-11-17T00:24:10.813Z,0
2016-11-17T00:25:11.313Z,0
2016-11-17T00:26:10.825Z,0
2016-11-17T00:27:10.898Z,0
2016-11-17T00:28:10.928Z,0
2016-11-17T00:29:11.053Z,0
2016-11-17T00:30:11.544Z,0
2016-11-17T00:31:11.051Z,0
2016-11-17T00:32:11.787Z,0
2016-11-17T00:33:11.724Z,0
2016-11-17T00:34:11.312Z,0
2016-11-17T00:35:11.337Z,0
2016-11-17T00:36:11.365Z,0
2016-11-17T00:37:11.366Z,0
2016-11-17T00:38:11.445Z,0
2016-11-17T00:39:11.572Z,0
2016-11-17T00:40:11.530Z,0
2016-11-17T00:41:11.586Z,0
2016-11-17T00:42:11.672Z,0
2016-11-17T00:43:12.202Z,0
2016-11-17T00:44:11.822Z,0
2016-11-17T00:45:11.804Z,0
2016-11-17T00:46:11.857Z,0
2016-11-17T00:47:11.894Z,0
2016-11-17T00:48:11.941Z,0
2016-11-17T00:49:12.095Z,0
2016-11-17T00:50:12.036Z,0
2016-11-17T00:51:12.107Z,0
2016-11-17T00:52:12.142Z,0
2016-11-17T00:53:12.222Z,0
2016-11-17T00:54:12.246Z,0
2016-11-17T00:55:12.310Z,0
2016-11-17T00:56:12.364Z,0
2016-11-17T00:57:12.405Z,0
2016-11-17T00:58:13.511Z,0
2016-11-17T00:59:12.465Z,0
2016-11-17T01:00:12.641Z,0
2016-11-17T01:01:12.616Z,0
2016-11-17T01:02:13.201Z,0
2016-11-17T01:03:13.213Z,0
2016-11-17T01:04:12.763Z,0
2016-11-17T01:05:13.437Z,0
2016-11-17T01:06:13.434Z,0
2016-11-17T01:07:12.937Z,0
2016-11-17T01:08:12.954Z,0
2016-11-17T01:09:13.256Z,0
2016-11-17T01:10:13.206Z,0
2016-11-17T01:11:13.169Z,0
2016-11-17T01:12:13.160Z,0
2016-11-17T01:13:13.248Z,0
2016-11-17T01:14:13.310Z,0
2016-11-17T01:15:13.537Z,0
2016-11-17T01:16:13.374Z,0
2016-11-17T01:17:13.584Z,0
2016-11-17T01:18:14.049Z,0
2016-11-17T01:19:14.050Z,0
2016-11-17T01:20:13.677Z,0
2016-11-17T01:21:13.649Z,0
2016-11-17T01:22:14.254Z,0
2016-11-17T01:23:13.784Z,0
2016-11-17T01:24:13.840Z,0
2016-11-17T01:25:13.975Z,0
2016-11-17T01:26:14.402Z,0
2016-11-17T01:27:14.011Z,0
2016-11-17T01:28:14.020Z,0
2016-11-17T01:29:14.069Z,0
2016-11-17T01:30:14.174Z,0
2016-11-17T01:31:14.144Z,0
2016-11-17T01:32:14.737Z,0
2016-11-17T01:33:14.222Z,0
2016-11-17T01:34:14.332Z,0
2016-11-17T01:35:14.340Z,0
2016-11-17T01:36:14.419Z,0
2016-11-17T01:37:14.446Z,0
2016-11-17T01:38:14.512Z,0
2016-11-17T01:39:14.528Z,0
2016-11-17T01:40:14.568Z,0
2016-11-17T01:41:14.669Z,0
2016-11-17T01:42:14.698Z,0
2016-11-17T01:43:14.778Z,0
2016-11-17T01:44:14.825Z,0
2016-11-17T01:45:14.917Z,0
2016-11-17T01:46:15.004Z,0
2016-11-17T01:47:14.970Z,0
2016-11-17T01:48:15.038Z,0
2016-11-17T01:49:15.099Z,0
2016-11-17T01:50:15.652Z,0
2016-11-17T01:51:15.293Z,0
2016-11-17T01:52:15.248Z,0
2016-11-17T01:53:15.273Z,0
2016-11-17T01:54:15.843Z,0
2016-11-17T01:55:15.518Z,0
2016-11-17T01:56:15.529Z,0
2016-11-17T01:59:28.680Z,0
2016-11-17T02:00:01.903Z,0
2016-11-17T02:01:01.462Z,0
2016-11-17T02:02:01.498Z,0
2016-11-17T02:03:01.474Z,0
2016-11-17T02:04:02.029Z,0
2016-11-17T02:05:01.567Z,0
2016-11-17T02:06:01.614Z,0
2016-11-17T02:07:01.767Z,0
2016-11-17T02:08:01.707Z,0
2016-11-17T02:09:01.763Z,0
2016-11-17T02:10:01.940Z,0
2016-11-17T02:11:02.035Z,0
2016-11-17T02:12:02.024Z,0
2016-11-17T02:13:02.527Z,0
2016-11-17T02:14:02.019Z,0
2016-11-17T02:15:02.117Z,0
2016-11-17T02:16:02.142Z,0
2016-11-17T02:17:02.265Z,0
2016-11-17T02:18:02.196Z,0
2016-11-17T02:19:02.305Z,0
2016-11-17T02:20:02.360Z,0
2016-11-17T02:21:02.395Z,0
2016-11-17T02:22:02.477Z,0
2016-11-17T02:23:02.511Z,0
2016-11-17T02:24:02.525Z,0
2016-11-17T02:25:02.670Z,0
2016-11-17T02:26:02.637Z,0
2016-11-17T02:27:02.666Z,0
2016-11-17T02:28:02.742Z,0
2016-11-17T02:29:03.310Z,0
2016-11-17T02:30:02.833Z,0
2016-11-17T02:31:02.915Z,0
2016-11-17T02:32:03.006Z,0
2016-11-17T02:33:03.102Z,0
2016-11-17T02:34:03.071Z,0
2016-11-17T02:35:03.326Z,0
2016-11-17T02:36:03.154Z,0
2016-11-17T02:37:03.271Z,0
2016-11-17T02:38:03.353Z,0
2016-11-17T02:39:03.324Z,0
2016-11-17T02:40:03.305Z,0
2016-11-17T02:41:03.434Z,0
2016-11-17T02:42:03.428Z,0
2016-11-17T02:43:03.598Z,0
2016-11-17T02:44:03.521Z,0
2016-11-17T02:45:04.276Z,0
2016-11-17T02:46:03.651Z,0
2016-11-17T02:47:03.695Z,0
2016-11-17T02:48:04.368Z,0
2016-11-17T02:49:03.815Z,0
2016-11-17T02:50:03.800Z,0
2016-11-17T02:51:03.900Z,0
2016-11-17T02:52:03.926Z,0
2016-11-17T02:53:04.691Z,0
2016-11-17T02:54:04.077Z,0
2016-11-17T02:55:04.138Z,0
2016-11-17T02:56:04.156Z,0
2016-11-17T02:57:04.208Z,0
2016-11-17T02:58:04.264Z,0
2016-11-17T02:59:04.819Z,0
2016-11-17T03:00:04.372Z,0
2016-11-17T03:01:04.466Z,0
2016-11-17T03:02:04.464Z,0
2016-11-17T03:03:04.543Z,0
2016-11-17T03:04:04.810Z,0
2016-11-17T03:05:04.642Z,0
2016-11-17T03:06:05.145Z,0
2016-11-17T03:07:04.705Z,0
2016-11-17T03:08:04.935Z,0
2016-11-17T03:09:04.890Z,0
2016-11-17T03:10:04.892Z,0
2016-11-17T03:11:04.922Z,0
2016-11-17T03:12:04.960Z,0
2016-11-17T03:13:05.033Z,0
2016-11-17T03:14:05.173Z,0
2016-11-17T03:15:06.190Z,0
2016-11-17T03:16:05.202Z,0
2016-11-17T03:17:05.197Z,0
2016-11-17T03:18:05.296Z,0
2016-11-17T03:19:05.419Z,0
2016-11-17T03:20:05.386Z,0
2016-11-17T03:21:05.454Z,0
2016-11-17T03:22:06.003Z,0
2016-11-17T03:23:05.528Z,0
2016-11-17T03:24:05.825Z,0
2016-11-17T03:25:05.619Z,0
2016-11-17T03:26:05.717Z,0
2016-11-17T03:27:05.687Z,0
2016-11-17T03:28:05.777Z,0
2016-11-17T03:29:05.900Z,0
2016-11-17T03:30:05.899Z,0
2016-11-17T03:31:05.921Z,0
2016-11-17T03:32:06.070Z,0
2016-11-17T03:33:06.078Z,0
2016-11-17T03:34:06.068Z,0
2016-11-17T03:35:06.221Z,0
2016-11-17T03:36:06.196Z,0
2016-11-17T03:37:06.792Z,0
2016-11-17T03:38:06.263Z,0
2016-11-17T03:39:06.443Z,0
2016-11-17T03:40:06.436Z,0
2016-11-17T03:41:06.592Z,0
2016-11-17T03:42:06.528Z,0
2016-11-17T03:43:06.538Z,0
2016-11-17T03:44:06.602Z,0
2016-11-17T03:45:06.756Z,0
2016-11-17T03:46:06.759Z,0
2016-11-17T03:47:06.729Z,0
2016-11-17T03:48:06.835Z,0
2016-11-17T03:49:07.381Z,0
2016-11-17T03:50:06.988Z,0
2016-11-17T03:51:07.469Z,0
2016-11-17T03:52:07.032Z,0
2016-11-17T03:53:07.059Z,0
2016-11-17T03:54:07.207Z,0
2016-11-17T03:55:07.213Z,0
2016-11-17T03:56:07.380Z,0
2016-11-17T03:57:07.240Z,0
2016-11-17T03:58:07.298Z,0
2016-11-17T03:59:07.378Z,0
2016-11-17T04:00:07.505Z,0
2016-11-17T04:01:07.445Z,0
2016-11-17T04:02:07.505Z,0
2016-11-17T04:03:07.596Z,0
2016-11-17T04:04:08.148Z,0
2016-11-17T04:05:07.904Z,0
2016-11-17T04:06:07.714Z,0
2016-11-17T04:07:08.463Z,0
2016-11-17T04:08:07.803Z,0
2016-11-17T04:09:07.893Z,0
2016-11-17T04:10:07.996Z,0
2016-11-17T04:11:07.970Z,0
2016-11-17T04:12:08.027Z,0
2016-11-17T04:13:08.081Z,0
2016-11-17T04:14:08.158Z,0
2016-11-17T04:15:08.256Z,0
2016-11-17T04:16:08.378Z,0
2016-11-17T04:17:08.953Z,0
2016-11-17T04:18:08.324Z,0
2016-11-17T04:19:08.369Z,0
2016-11-17T04:20:08.413Z,0
2016-11-17T04:21:08.579Z,0
2016-11-17T04:22:08.533Z,0
2016-11-17T04:23:08.634Z,0
2016-11-17T04:24:08.639Z,0
2016-11-17T04:25:08.720Z,0
2016-11-17T04:26:08.852Z,0
2016-11-17T04:27:08.759Z,0
2016-11-17T04:28:09.373Z,0
2016-11-17T04:29:08.917Z,0
2016-11-17T04:30:08.961Z,0
2016-11-17T04:31:09.082Z,0
2016-11-17T04:32:09.050Z,0
2016-11-17T04:33:09.135Z,0
2016-11-17T04:34:09.113Z,0
2016-11-17T04:35:09.220Z,0
2016-11-17T04:36:09.334Z,0
2016-11-17T04:37:09.295Z,0
2016-11-17T04:38:09.371Z,0
2016-11-17T04:39:09.364Z,0
2016-11-17T04:40:09.451Z,0
2016-11-17T04:41:10.118Z,0
2016-11-17T04:42:09.599Z,0
2016-11-17T04:43:09.622Z,0
2016-11-17T04:44:09.713Z,0
2016-11-17T04:45:09.667Z,0
2016-11-17T04:46:09.776Z,0
2016-11-17T04:47:09.830Z,0
2016-11-17T04:48:09.852Z,0
2016-11-17T04:49:09.906Z,0
2016-11-17T04:50:10.068Z,0
2016-11-17T04:51:10.008Z,0
2016-11-17T04:52:10.124Z,0
2016-11-17T04:53:10.090Z,0
2016-11-17T04:54:10.137Z,0
2016-11-17T04:55:10.184Z,0
2016-11-17T04:56:10.308Z,0
2016-11-17T04:57:10.479Z,0
2016-11-17T04:58:10.349Z,0
2016-11-17T04:59:10.404Z,0
2016-11-17T05:00:10.517Z,0
2016-11-17T05:01:10.496Z,0
2016-11-17T05:02:10.674Z,0
2016-11-17T05:03:10.611Z,0
2016-11-17T05:04:10.741Z,0
2016-11-17T05:05:10.704Z,0
2016-11-17T05:06:10.774Z,0
2016-11-17T05:07:10.953Z,0
2016-11-17T05:08:10.854Z,0
2016-11-17T05:09:10.914Z,0
2016-11-17T05:10:10.946Z,0
2016-11-17T05:11:11.035Z,0
2016-11-17T05:12:11.235Z,0
2016-11-17T05:13:11.096Z,0
2016-11-17T05:14:11.188Z,0
2016-11-17T05:15:11.347Z,0
2016-11-17T05:16:11.268Z,0
2016-11-17T05:17:11.284Z,0
2016-11-17T05:18:11.411Z,0
2016-11-17T05:19:11.509Z,0
2016-11-17T05:20:11.585Z,0
2016-11-17T05:21:11.522Z,0
2016-11-17T05:22:11.660Z,0
2016-11-17T05:23:11.731Z,0
2016-11-17T05:24:11.709Z,0
2016-11-17T05:25:11.743Z,0
2016-11-17T05:26:11.810Z,0
2016-11-17T05:27:11.836Z,0
2016-11-17T05:28:12.009Z,0
2016-11-17T05:29:11.939Z,0
2016-11-17T05:30:12.554Z,0
2016-11-17T05:31:12.063Z,0
2016-11-17T05:32:12.069Z,0
2016-11-17T05:33:12.247Z,0
2016-11-17T05:34:12.183Z,0
2016-11-17T05:35:12.214Z,0
2016-11-17T05:36:12.292Z,0
2016-11-17T05:37:12.424Z,0
2016-11-17T05:38:12.532Z,0
2016-11-17T05:39:12.441Z,0
2016-11-17T05:40:12.539Z,0
2016-11-17T05:41:12.911Z,0
2016-11-17T05:42:13.140Z,0
2016-11-17T05:43:12.815Z,0
2016-11-17T05:44:12.709Z,0
2016-11-17T05:45:12.760Z,0
2016-11-17T05:46:12.796Z,0
2016-11-17T05:47:12.849Z,0
2016-11-17T05:48:12.931Z,0
2016-11-17T05:49:12.972Z,0
2016-11-17T05:50:12.999Z,0
2016-11-17T05:51:13.030Z,0
2016-11-17T05:52:13.111Z,0
2016-11-17T05:53:13.157Z,0
2016-11-17T05:54:13.288Z,0
2016-11-17T05:55:13.264Z,0
2016-11-17T05:56:13.343Z,0
2016-11-17T05:57:13.366Z,0
2016-11-17T05:58:13.419Z,0
2016-11-17T05:59:13.601Z,0
2016-11-17T06:00:13.540Z,0
2016-11-17T06:01:13.568Z,0
2016-11-17T06:02:13.631Z,0
2016-11-17T06:03:13.658Z,0
2016-11-17T06:04:13.818Z,0
2016-11-17T06:05:13.754Z,0
2016-11-17T06:06:13.800Z,0
2016-11-17T06:07:13.868Z,0
2016-11-17T06:08:13.954Z,0
2016-11-17T06:09:14.076Z,0
2016-11-17T06:10:14.088Z,0
2016-11-17T06:11:14.059Z,0
2016-11-17T06:12:14.131Z,0
2016-11-17T06:13:14.260Z,0
2016-11-17T06:14:14.307Z,0
2016-11-17T06:15:14.259Z,0
2016-11-17T06:16:14.869Z,0
2016-11-17T06:17:14.354Z,0
2016-11-17T06:18:14.429Z,0
2016-11-17T06:19:14.502Z,0
2016-11-17T06:20:14.535Z,0
2016-11-17T06:21:14.588Z,0
2016-11-17T06:22:14.636Z,0
2016-11-17T06:23:14.673Z,0
2016-11-17T06:24:14.708Z,0
2016-11-17T06:25:14.859Z,0
2016-11-17T06:26:14.825Z,0
2016-11-17T06:27:14.872Z,0
2016-11-17T06:28:14.935Z,0
2016-11-17T06:29:14.994Z,0
2016-11-17T06:30:15.094Z,0
2016-11-17T06:31:15.103Z,0
2016-11-17T06:32:15.150Z,0
2016-11-17T06:33:15.208Z,0
2016-11-17T06:34:15.278Z,0
2016-11-17T06:35:15.405Z,0
2016-11-17T06:36:15.333Z,0
2016-11-17T06:37:15.397Z,0
2016-11-17T06:38:15.438Z,0
2016-11-17T06:39:15.535Z,0
2016-11-17T06:40:15.666Z,0
2016-11-17T06:41:15.554Z,0
2016-11-17T06:42:15.665Z,0
2016-11-17T06:43:15.749Z,0
2016-11-17T06:44:15.728Z,0
2016-11-17T06:45:15.934Z,0
2016-11-17T06:46:15.877Z,0
2016-11-17T06:47:15.905Z,0
2016-11-17T06:48:15.923Z,0
2016-11-17T06:49:15.977Z,0
2016-11-17T06:50:16.050Z,0
2016-11-17T06:51:16.110Z,0
2016-11-17T06:52:16.134Z,0
2016-11-17T06:53:16.212Z,0
2016-11-17T06:54:16.302Z,0
2016-11-17T06:55:16.307Z,0
2016-11-17T06:56:16.471Z,0
2016-11-17T06:57:16.391Z,0
2016-11-17T06:58:16.459Z,0
2016-11-17T06:59:16.494Z,0
2016-11-17T07:00:16.531Z,0
2016-11-17T07:01:16.724Z,0
2016-11-17T07:02:16.602Z,0
2016-11-17T07:03:16.718Z,0
2016-11-17T07:04:17.268Z,0
2016-11-17T07:05:16.788Z,0
2016-11-17T07:06:16.954Z,0
2016-11-17T07:07:16.926Z,0
2016-11-17T07:08:16.947Z,0
2016-11-17T07:09:16.996Z,0
2016-11-17T07:10:17.025Z,0
2016-11-17T07:11:17.209Z,0
2016-11-17T07:12:17.188Z,0
2016-11-17T07:13:17.223Z,0
2016-11-17T07:14:17.258Z,0
2016-11-17T07:15:17.339Z,0
2016-11-17T07:16:17.463Z,0
2016-11-17T07:17:17.403Z,0
2016-11-17T07:18:17.465Z,0
2016-11-17T07:19:18.009Z,0
2016-11-17T07:20:17.545Z,0
2016-11-17T07:21:17.623Z,0
2016-11-17T07:22:18.758Z,0
2016-11-17T07:23:17.681Z,0
2016-11-17T07:24:17.763Z,0
2016-11-17T07:25:17.822Z,0
2016-11-17T07:26:17.842Z,0
2016-11-17T07:27:18.045Z,0
2016-11-17T07:28:17.984Z,0
2016-11-17T07:29:18.002Z,0
2016-11-17T07:30:18.076Z,0
2016-11-17T07:31:18.692Z,0
2016-11-17T07:32:18.296Z,0
2016-11-17T07:33:18.230Z,0
2016-11-17T07:34:18.275Z,0
2016-11-17T07:35:18.318Z,0
2016-11-17T07:36:18.357Z,0
2016-11-17T07:37:18.518Z,0
2016-11-17T07:38:18.480Z,0
2016-11-17T07:39:18.518Z,0
2016-11-17T07:40:18.582Z,0
2016-11-17T07:41:18.598Z,0
2016-11-17T07:42:18.847Z,0
2016-11-17T07:43:18.760Z,0
2016-11-17T07:44:18.777Z,0
2016-11-17T07:45:18.839Z,0
2016-11-17T07:46:18.931Z,0
2016-11-17T07:47:19.049Z,0
2016-11-17T07:48:18.981Z,0
2016-11-17T07:49:19.012Z,0
2016-11-17T07:50:19.097Z,0
2016-11-17T07:51:19.146Z,0
2016-11-17T07:52:19.279Z,0
2016-11-17T07:53:19.788Z,0
2016-11-17T07:54:19.297Z,4
2016-11-17T07:55:19.364Z,4
2016-11-17T07:56:19.425Z,0
2016-11-17T07:57:19.453Z,4
2016-11-17T07:58:19.558Z,4
2016-11-17T07:59:19.559Z,4
2016-11-17T08:00:20.109Z,4
2016-11-17T08:01:19.685Z,4
2016-11-17T08:02:19.719Z,8
2016-11-17T08:03:19.849Z,8
2016-11-17T08:04:19.785Z,12
2016-11-17T08:05:19.848Z,12
2016-11-17T08:06:19.931Z,16
2016-11-17T08:07:19.926Z,16
2016-11-17T08:08:20.111Z,16
2016-11-17T08:09:20.081Z,20
2016-11-17T08:10:20.119Z,20
2016-11-17T08:11:20.131Z,24
2016-11-17T08:12:20.203Z,28
2016-11-17T08:13:20.861Z,32
2016-11-17T08:14:20.270Z,36
2016-11-17T08:15:20.904Z,44
2016-11-17T08:16:21.076Z,52
2016-11-17T08:17:20.480Z,56
2016-11-17T08:18:20.609Z,64
2016-11-17T08:19:20.533Z,64
2016-11-17T08:20:20.621Z,72
2016-11-17T08:21:21.153Z,68
2016-11-17T08:22:20.706Z,76
2016-11-17T08:23:20.852Z,80
2016-11-17T08:24:21.319Z,84
2016-11-17T08:25:20.837Z,92
2016-11-17T08:26:20.923Z,108
2016-11-17T08:27:20.927Z,128
2016-11-17T08:28:21.067Z,148
2016-11-17T08:29:21.027Z,176
2016-11-17T08:30:21.120Z,204
2016-11-17T08:31:21.167Z,236
2016-11-17T08:32:21.168Z,216
2016-11-17T08:33:21.867Z,188
2016-11-17T08:34:21.323Z,164
2016-11-17T08:35:21.355Z,156
2016-11-17T08:36:21.394Z,160
2016-11-17T08:37:21.474Z,164
2016-11-17T08:38:21.515Z,168
2016-11-17T08:39:21.649Z,176
2016-11-17T08:40:21.610Z,188
2016-11-17T08:41:21.693Z,204
2016-11-17T08:42:21.698Z,228
2016-11-17T08:43:21.761Z,236
2016-11-17T08:44:21.819Z,240
2016-11-17T08:45:21.837Z,256
2016-11-17T08:46:21.986Z,284
2016-11-17T08:47:21.941Z,304
2016-11-17T08:48:22.499Z,336
2016-11-17T08:49:22.609Z,384
2016-11-17T08:50:22.134Z,480
2016-11-17T08:51:22.717Z,544
2016-11-17T08:52:22.705Z,552
2016-11-17T08:53:22.275Z,560
2016-11-17T08:54:22.452Z,532
2016-11-17T08:55:22.328Z,516
2016-11-17T08:56:22.430Z,532
2016-11-17T08:57:22.541Z,552
2016-11-17T08:58:22.523Z,616
2016-11-17T08:59:22.642Z,708
2016-11-17T09:00:23.158Z,684
2016-11-17T09:01:23.213Z,640
2016-11-17T09:02:22.726Z,592
2016-11-17T09:03:22.777Z,552
2016-11-17T09:04:22.959Z,524
2016-11-17T09:05:22.851Z,512
2016-11-17T09:06:22.949Z,524
2016-11-17T09:07:23.533Z,548
2016-11-17T09:08:23.016Z,572
2016-11-17T09:09:23.177Z,560
2016-11-17T09:10:23.099Z,520
2016-11-17T09:11:23.185Z,484
2016-11-17T09:12:23.771Z,464
2016-11-17T09:13:23.299Z,460
2016-11-17T09:14:23.344Z,456
2016-11-17T09:15:23.423Z,452
2016-11-17T09:16:23.483Z,452
2016-11-17T09:17:23.496Z,472
2016-11-17T09:18:23.556Z,516
2016-11-17T09:19:24.139Z,584
2016-11-17T09:20:24.141Z,648
2016-11-17T09:21:23.726Z,728
2016-11-17T09:22:23.752Z,800
2016-11-17T09:23:23.820Z,920
2016-11-17T09:24:24.354Z,940
2016-11-17T09:25:23.971Z,960
2016-11-17T09:26:24.471Z,960
2016-11-17T09:27:24.629Z,872
2016-11-17T09:28:24.059Z,808
2016-11-17T09:29:24.083Z,744
2016-11-17T09:30:24.245Z,716
2016-11-17T09:31:24.753Z,740
2016-11-17T09:32:24.240Z,792
2016-11-17T09:33:24.271Z,848
2016-11-17T09:34:24.366Z,872
2016-11-17T09:35:24.505Z,864
2016-11-17T09:36:24.964Z,832
2016-11-17T09:37:25.032Z,764
2016-11-17T09:38:24.759Z,668
2016-11-17T09:39:25.518Z,628
2016-11-17T09:40:25.280Z,616
2016-11-17T09:41:24.710Z,604
2016-11-17T09:42:24.784Z,640
2016-11-17T09:43:24.826Z,780
2016-11-17T09:44:24.847Z,1128
2016-11-17T09:45:25.039Z,1496
2016-11-17T09:46:24.970Z,2116
2016-11-17T09:47:25.525Z,2332
2016-11-17T09:48:25.053Z,2448
2016-11-17T09:49:25.693Z,2764
2016-11-17T09:50:25.282Z,3176
2016-11-17T09:51:25.233Z,3660
2016-11-17T09:52:25.286Z,4208
2016-11-17T09:53:25.339Z,4632
2016-11-17T09:54:25.401Z,4804
2016-11-17T09:55:25.379Z,4544
2016-11-17T09:56:25.533Z,3516
2016-11-17T09:57:25.540Z,2440
2016-11-17T09:58:25.640Z,2460
2016-11-17T09:59:25.781Z,2616
2016-11-17T10:00:26.438Z,2932
2016-11-17T10:01:26.291Z,3624
2016-11-17T10:02:25.834Z,4380
2016-11-17T10:03:25.901Z,4940
2016-11-17T10:04:25.877Z,5280
2016-11-17T10:05:25.924Z,5816
2016-11-17T10:06:26.083Z,7012
2016-11-17T10:07:26.070Z,8380
2016-11-17T10:08:26.161Z,7828
2016-11-17T10:09:26.139Z,6976
2016-11-17T10:10:27.023Z,7204
2016-11-17T10:11:26.410Z,6440
2016-11-17T10:12:26.862Z,5292
2016-11-17T10:13:26.394Z,3660
2016-11-17T10:14:26.425Z,3184
2016-11-17T10:15:26.478Z,2844
2016-11-17T10:16:27.199Z,2544
2016-11-17T10:17:27.088Z,2448
2016-11-17T10:18:26.646Z,2540
2016-11-17T10:19:28.028Z,2664
2016-11-17T10:20:26.727Z,2372
2016-11-17T10:21:26.894Z,2240
2016-11-17T10:22:27.845Z,2044
2016-11-17T10:23:27.915Z,1940
2016-11-17T10:24:27.034Z,2104
2016-11-17T10:25:27.489Z,2260
2016-11-17T10:26:28.206Z,2288
2016-11-17T10:27:27.533Z,2404
2016-11-17T10:28:27.172Z,2756
2016-11-17T10:29:28.264Z,2432
2016-11-17T10:30:28.247Z,2320
2016-11-17T10:31:32.151Z,2184
2016-11-17T10:32:27.399Z,2028
2016-11-17T10:33:28.443Z,1900
2016-11-17T10:34:27.430Z,1888
2016-11-17T10:35:28.015Z,1868
2016-11-17T10:36:27.563Z,1832
2016-11-17T10:37:27.589Z,1788
2016-11-17T10:38:29.313Z,1796
2016-11-17T10:39:28.780Z,1816
2016-11-17T10:40:28.499Z,1812
2016-11-17T10:41:28.405Z,1768
2016-11-17T10:42:28.921Z,1696
2016-11-17T10:43:27.890Z,1632
2016-11-17T10:44:28.492Z,1560
2016-11-17T10:45:28.568Z,1504
2016-11-17T10:46:28.635Z,1484
2016-11-17T10:47:28.392Z,1484
2016-11-17T10:48:29.204Z,1508
2016-11-17T10:49:28.214Z,1564
2016-11-17T10:50:29.316Z,1664
2016-11-17T10:51:28.819Z,1776
2016-11-17T10:52:29.561Z,1864
2016-11-17T10:53:28.948Z,1928
2016-11-17T10:54:28.437Z,2032
2016-11-17T10:55:28.529Z,2148
2016-11-17T10:56:28.639Z,2288
2016-11-17T10:57:28.857Z,2400
2016-11-17T10:58:29.781Z,2500
2016-11-17T10:59:29.804Z,2632
2016-11-17T11:00:29.243Z,2812
2016-11-17T11:01:28.850Z,3032
2016-11-17T11:02:29.520Z,3428
2016-11-17T11:03:29.697Z,4060
2016-11-17T11:04:30.031Z,4808
2016-11-17T11:05:29.057Z,5816
2016-11-17T11:06:29.132Z,6912
2016-11-17T11:07:29.918Z,7740
2016-11-17T11:08:29.837Z,7908
2016-11-17T11:09:29.400Z,7656
2016-11-17T11:10:29.823Z,7372
2016-11-17T11:11:29.386Z,7160
2016-11-17T11:12:29.428Z,6928
2016-11-17T11:13:30.019Z,6900
2016-11-17T11:14:30.030Z,6896
2016-11-17T11:15:30.042Z,6340
2016-11-17T11:16:30.188Z,5936
2016-11-17T11:17:29.666Z,5348
2016-11-17T11:18:30.210Z,5028
2016-11-17T11:19:30.806Z,4880
2016-11-17T11:20:30.863Z,4672
2016-11-17T11:21:29.860Z,4444
2016-11-17T11:22:30.689Z,4252
2016-11-17T11:23:30.615Z,4112
2016-11-17T11:24:30.551Z,4072
2016-11-17T11:25:31.126Z,4152
2016-11-17T11:26:30.838Z,4296
2016-11-17T11:27:31.256Z,4420
2016-11-17T11:28:30.938Z,4168
2016-11-17T11:29:30.786Z,3932
2016-11-17T11:30:30.883Z,3764
2016-11-17T11:31:31.507Z,3916
2016-11-17T11:32:30.994Z,3932
2016-11-17T11:33:31.269Z,3812
2016-11-17T11:34:31.085Z,3744
2016-11-17T11:35:31.655Z,3692
2016-11-17T11:36:30.660Z,3828
2016-11-17T11:37:31.764Z,4176
2016-11-17T11:38:31.384Z,4736
2016-11-17T11:39:31.324Z,5596
2016-11-17T11:40:30.851Z,6176
2016-11-17T11:41:31.470Z,7380
2016-11-17T11:42:30.974Z,7408
2016-11-17T11:43:31.618Z,7284
2016-11-17T11:44:31.576Z,6916
2016-11-17T11:45:31.640Z,6708
2016-11-17T11:46:31.917Z,6808
2016-11-17T11:47:32.254Z,7092
2016-11-17T11:48:31.302Z,7276
2016-11-17T11:49:31.377Z,7184
2016-11-17T11:50:31.890Z,7008
2016-11-17T11:51:32.677Z,6976
2016-11-17T11:52:31.956Z,7148
2016-11-17T11:53:31.559Z,7124
2016-11-17T11:54:32.220Z,7192
2016-11-17T11:55:31.664Z,7336
2016-11-17T11:56:32.221Z,7604
2016-11-17T11:57:32.300Z,7416
2016-11-17T11:58:32.308Z,7692
2016-11-17T11:59:32.068Z,8132
2016-11-17T12:00:32.957Z,8540
2016-11-17T12:01:32.535Z,8316
2016-11-17T12:02:32.052Z,7908
2016-11-17T12:03:32.039Z,7352
2016-11-17T12:04:32.328Z,7348
2016-11-17T12:05:32.158Z,7596
2016-11-17T12:06:32.971Z,7476
2016-11-17T12:07:32.773Z,7548
2016-11-17T12:08:32.862Z,7836
2016-11-17T12:09:32.509Z,9160
2016-11-17T12:10:34.025Z,9060
2016-11-17T12:11:33.002Z,9032
2016-11-17T12:12:33.131Z,9204
2016-11-17T12:13:33.190Z,9324
2016-11-17T12:14:34.128Z,9396
2016-11-17T12:15:33.221Z,9316
2016-11-17T12:16:33.304Z,8236
2016-11-17T12:17:32.804Z,7676
2016-11-17T12:18:33.864Z,7888
2016-11-17T12:19:32.947Z,8792
2016-11-17T12:20:32.991Z,9124
2016-11-17T12:21:33.029Z,9308
2016-11-17T12:22:33.582Z,9512
2016-11-17T12:23:33.132Z,9552
2016-11-17T12:24:33.172Z,9328
2016-11-17T12:25:34.262Z,7956
2016-11-17T12:26:33.255Z,7204
2016-11-17T12:27:33.882Z,6952
2016-11-17T12:28:33.398Z,7532
2016-11-17T12:29:33.439Z,8244
2016-11-17T12:30:33.666Z,8676
2016-11-17T12:31:33.587Z,8812
2016-11-17T12:32:34.118Z,8776
2016-11-17T12:33:34.227Z,8776
2016-11-17T12:34:33.706Z,8700
2016-11-17T12:35:34.013Z,8468
2016-11-17T12:36:33.807Z,8576
2016-11-17T12:37:34.450Z,8468
2016-11-17T12:38:33.927Z,8540
2016-11-17T12:39:34.018Z,8384
2016-11-17T12:40:34.740Z,8188
2016-11-17T12:41:35.123Z,8300
2016-11-17T12:42:34.720Z,8076
2016-11-17T12:43:34.741Z,7560
2016-11-17T12:44:34.772Z,7272
2016-11-17T12:45:34.369Z,8208
2016-11-17T12:46:35.462Z,7712
2016-11-17T12:47:35.473Z,8216
2016-11-17T12:48:35.020Z,8376
2016-11-17T12:49:34.549Z,8192
2016-11-17T12:50:35.755Z,7928
2016-11-17T12:51:34.614Z,7492
2016-11-17T12:52:35.260Z,7348
2016-11-17T12:53:35.323Z,6984
2016-11-17T12:54:34.784Z,6948
2016-11-17T12:55:38.723Z,7000
2016-11-17T12:56:35.477Z,7036
2016-11-17T12:57:35.480Z,7072
2016-11-17T12:58:35.052Z,6920
2016-11-17T12:59:35.090Z,7140
2016-11-17T13:00:35.131Z,7044
2016-11-17T13:01:35.705Z,7344
2016-11-17T13:02:36.330Z,7436
2016-11-17T13:03:35.303Z,7428
2016-11-17T13:04:35.333Z,7244
2016-11-17T13:05:35.450Z,7028
2016-11-17T13:06:35.423Z,7012
2016-11-17T13:07:36.072Z,6024
2016-11-17T13:08:35.559Z,6340
2016-11-17T13:09:35.611Z,6244
2016-11-17T13:10:35.695Z,6488
2016-11-17T13:11:35.901Z,6752
2016-11-17T13:12:35.744Z,7004
2016-11-17T13:13:35.800Z,6932
2016-11-17T13:14:36.438Z,6828
2016-11-17T13:15:35.939Z,6932
2016-11-17T13:16:36.759Z,6852
2016-11-17T13:17:36.552Z,6244
2016-11-17T13:18:36.099Z,6528
2016-11-17T13:19:36.214Z,6760
2016-11-17T13:20:37.007Z,6192
2016-11-17T13:21:36.478Z,6908
2016-11-17T13:22:36.364Z,7396
2016-11-17T13:23:37.458Z,6476
2016-11-17T13:24:36.404Z,6944
2016-11-17T13:25:36.490Z,6516
2016-11-17T13:26:37.272Z,6944
2016-11-17T13:27:36.599Z,6696
2016-11-17T13:28:36.648Z,6692
2016-11-17T13:29:36.694Z,7016
2016-11-17T13:30:36.719Z,6520
2016-11-17T13:31:37.491Z,6368
2016-11-17T13:32:36.929Z,5912
2016-11-17T13:33:36.971Z,5928
2016-11-17T13:34:37.513Z,5612
2016-11-17T13:35:37.041Z,5860
2016-11-17T13:36:37.713Z,5748
2016-11-17T13:37:37.132Z,6352
2016-11-17T13:38:37.754Z,4984
2016-11-17T13:39:37.832Z,6004
2016-11-17T13:40:38.260Z,6428
2016-11-17T13:41:37.983Z,6380
2016-11-17T13:42:37.981Z,6324
2016-11-17T13:43:38.040Z,6228
2016-11-17T13:44:37.510Z,6084
2016-11-17T13:45:37.636Z,5952
2016-11-17T13:46:38.155Z,5948
2016-11-17T13:47:37.703Z,5812
2016-11-17T13:48:38.764Z,5880
2016-11-17T13:49:37.823Z,5760
2016-11-17T13:50:38.955Z,5628
2016-11-17T13:51:39.041Z,6064
2016-11-17T13:52:38.167Z,6024
2016-11-17T13:53:38.205Z,6000
2016-11-17T13:54:38.069Z,6064
2016-11-17T13:55:38.135Z,6056
2016-11-17T13:56:38.191Z,6084
2016-11-17T13:57:38.453Z,6228
2016-11-17T13:58:38.275Z,6208
2016-11-17T13:59:39.662Z,6188
2016-11-17T14:00:38.890Z,5612
2016-11-17T14:01:38.454Z,5876
2016-11-17T14:02:38.720Z,4808
2016-11-17T14:03:38.560Z,4552
2016-11-17T14:04:38.622Z,4512
2016-11-17T14:05:39.245Z,4912
2016-11-17T14:06:39.278Z,5776
2016-11-17T14:07:38.943Z,5876
2016-11-17T14:08:38.908Z,5884
2016-11-17T14:09:39.490Z,5860
2016-11-17T14:10:39.456Z,5840
2016-11-17T14:11:38.985Z,5792
2016-11-17T14:12:39.293Z,5688